createdAt,value
2023-02-11T00:00:14.900Z,70.73
2023-02-11T00:05:38.403Z,69.96
2023-02-11T00:10:42.179Z,68.95
2023-02-11T00:15:45.553Z,68.83
2023-02-11T00:20:51.422Z,67.96
2023-02-11T00:26:13.282Z,67.69
2023-02-11T00:31:23.702Z,67.77
2023-02-11T00:36:29.275Z,67.18
2023-02-11T00:41:33.181Z,67.50
2023-02-11T00:46:40.666Z,67.14
2023-02-11T00:51:46.982Z,67.11
2023-02-11T00:56:54.994Z,67.52
2023-02-11T01:02:01.254Z,66.88
2023-02-11T01:07:14.011Z,67.05
2023-02-11T01:12:20.306Z,67.66
2023-02-11T01:17:39.401Z,67.38
2023-02-11T01:22:51.963Z,67.82
2023-02-11T01:27:55.333Z,67.54
2023-02-11T01:32:59.414Z,68.75
2023-02-11T01:38:08.705Z,68.67
2023-02-11T01:43:20.202Z,69.53
2023-02-11T01:48:42.915Z,68.93
2023-02-11T01:54:05.571Z,68.58
2023-02-11T01:59:18.052Z,68.41
2023-02-11T02:04:23.412Z,68.81
2023-02-11T02:09:35.300Z,68.28
2023-02-11T02:14:41.682Z,68.29
2023-02-11T02:20:17.557Z,68.49
2023-02-11T02:25:59.477Z,68.83
2023-02-11T02:31:18.679Z,68.46
2023-02-11T02:36:35.063Z,67.45
2023-02-11T02:41:39.494Z,67.82
2023-02-11T02:46:42.803Z,67.29
2023-02-11T02:51:53.182Z,67.20
2023-02-11T02:57:48.551Z,66.73
2023-02-11T03:03:16.730Z,67.66
2023-02-11T03:08:26.361Z,67.94
2023-02-11T03:13:33.826Z,67.68
2023-02-11T03:18:41.095Z,68.06
2023-02-11T03:23:50.903Z,68.57
2023-02-11T03:29:16.115Z,67.43
2023-02-11T03:34:23.993Z,67.51
2023-02-11T03:39:36.969Z,67.18
2023-02-11T03:44:48.821Z,67.24
2023-02-11T03:49:55.068Z,67.36
2023-02-11T03:55:00.824Z,67.61
2023-02-11T04:00:04.847Z,67.79
2023-02-11T04:05:16.472Z,68.33
2023-02-11T04:10:20.075Z,68.52
2023-02-11T04:15:24.037Z,68.65
2023-02-11T04:20:27.598Z,68.67
2023-02-11T04:25:31.771Z,68.37
2023-02-11T04:30:35.134Z,67.97
2023-02-11T04:35:41.533Z,68.43
2023-02-11T04:40:45.660Z,68.43
2023-02-11T04:45:49.560Z,67.68
2023-02-11T04:50:53.587Z,67.43
2023-02-11T04:55:57.281Z,67.66
2023-02-11T05:01:10.196Z,67.11
2023-02-11T05:06:13.693Z,66.88
2023-02-11T05:11:22.186Z,67.25
2023-02-11T05:16:37.113Z,66.90
2023-02-11T05:21:50.352Z,66.28
2023-02-11T05:27:00.469Z,65.88
2023-02-11T05:32:04.279Z,66.15
2023-02-11T05:37:15.852Z,65.48
2023-02-11T05:42:33.743Z,65.30
2023-02-11T05:47:39.464Z,65.11
2023-02-11T05:52:43.922Z,65.13
2023-02-11T05:57:47.489Z,65.02
2023-02-11T06:02:55.050Z,65.19
2023-02-11T06:07:59.053Z,65.13
2023-02-11T06:13:02.470Z,65.93
2023-02-11T06:18:06.306Z,67.06
2023-02-11T06:23:10.340Z,66.99
2023-02-11T06:28:13.865Z,66.70
2023-02-11T06:33:18.200Z,67.11
2023-02-11T06:38:21.753Z,66.75
2023-02-11T06:43:25.305Z,66.63
2023-02-11T06:48:28.605Z,66.83
2023-02-11T06:53:35.666Z,66.89
2023-02-11T06:58:39.078Z,65.74
2023-02-11T07:03:46.006Z,64.83
2023-02-11T07:08:52.075Z,64.34
2023-02-11T07:14:00.735Z,64.13
2023-02-11T07:19:04.151Z,63.41
2023-02-11T07:24:11.171Z,62.28
2023-02-11T07:29:16.538Z,61.32
2023-02-11T07:34:39.955Z,61.72
2023-02-11T07:39:43.881Z,61.41
2023-02-11T07:44:50.278Z,61.02
2023-02-11T07:49:56.466Z,60.86
2023-02-11T07:55:04.868Z,61.08
2023-02-11T08:00:11.333Z,60.17
2023-02-11T08:05:15.074Z,59.60
2023-02-11T08:10:24.312Z,58.71
2023-02-11T08:15:47.104Z,57.01
2023-02-11T08:20:50.832Z,56.66
2023-02-11T08:26:03.861Z,55.90
2023-02-11T08:31:15.113Z,55.39
2023-02-11T08:36:27.346Z,54.06
2023-02-11T08:41:32.100Z,52.33
2023-02-11T08:46:38.684Z,50.66
2023-02-11T08:51:57.444Z,50.54
2023-02-11T08:57:56.663Z,49.52
2023-02-11T09:03:05.695Z,48.68
2023-02-11T09:08:12.950Z,47.66
2023-02-11T09:14:10.027Z,46.09
2023-02-11T09:20:14.038Z,44.33
2023-02-11T09:25:52.031Z,43.78
2023-02-11T09:32:16.583Z,44.37
2023-02-11T09:37:40.761Z,45.67
2023-02-11T09:43:48.562Z,48.13
2023-02-11T09:49:28.416Z,50.34
2023-02-11T09:54:56.605Z,51.16
2023-02-11T10:00:37.438Z,51.15
2023-02-11T10:06:26.471Z,50.70
2023-02-11T10:12:16.836Z,51.58
2023-02-11T10:18:13.541Z,51.18
2023-02-11T10:23:34.950Z,50.48
2023-02-11T10:28:47.844Z,50.03
2023-02-11T10:34:42.257Z,49.69
2023-02-11T10:39:48.579Z,50.88
2023-02-11T10:45:03.113Z,51.37
2023-02-11T10:50:33.562Z,51.98
2023-02-11T10:55:38.211Z,51.83
2023-02-11T11:01:24.235Z,50.86
2023-02-11T11:06:56.759Z,49.90
2023-02-11T11:12:00.454Z,49.73
2023-02-11T11:17:18.384Z,49.08
2023-02-11T11:22:46.484Z,48.49
2023-02-11T11:27:56.845Z,49.75
2023-02-11T11:33:04.611Z,48.84
2023-02-11T11:38:14.511Z,49.55
2023-02-11T11:43:23.278Z,49.85
2023-02-11T11:48:38.860Z,49.57
2023-02-11T11:54:08.974Z,49.48
2023-02-11T11:59:17.144Z,49.66
2023-02-11T12:04:26.692Z,50.04
2023-02-11T12:09:40.415Z,50.47
2023-02-11T12:15:16.983Z,50.57
2023-02-11T12:20:30.351Z,51.42
2023-02-11T12:26:11.428Z,52.02
2023-02-11T12:31:49.833Z,52.78
2023-02-11T12:37:16.138Z,53.42
2023-02-11T12:42:40.975Z,53.41
2023-02-11T12:47:57.580Z,54.62
2023-02-11T12:53:58.193Z,55.80
2023-02-11T12:59:14.237Z,56.96
2023-02-11T13:04:39.554Z,57.54
2023-02-11T13:09:55.595Z,57.75
2023-02-11T13:15:13.765Z,58.02
2023-02-11T13:20:52.122Z,57.95
2023-02-11T13:26:21.680Z,57.58
2023-02-11T13:31:27.670Z,57.85
2023-02-11T13:36:33.467Z,58.99
2023-02-11T13:41:41.404Z,60.65
2023-02-11T13:46:59.837Z,61.88
2023-02-11T13:52:19.364Z,63.80
2023-02-11T13:57:35.724Z,64.50
2023-02-11T14:03:00.272Z,63.64
2023-02-11T14:08:28.873Z,62.53
2023-02-11T14:13:37.136Z,62.17
2023-02-11T14:18:55.953Z,62.53
2023-02-11T14:24:39.861Z,62.96
2023-02-11T14:30:20.124Z,63.74
2023-02-11T14:36:10.374Z,63.90
2023-02-11T14:41:54.253Z,64.12
2023-02-11T14:47:21.420Z,64.58
2023-02-11T14:52:33.073Z,66.39
2023-02-11T14:57:38.029Z,67.31
2023-02-11T15:02:43.886Z,67.89
2023-02-11T15:07:54.390Z,68.19
2023-02-11T15:12:59.071Z,68.63
2023-02-11T15:18:22.954Z,69.18
2023-02-11T15:23:28.285Z,70.26
2023-02-11T15:28:34.626Z,71.46
2023-02-11T15:33:38.135Z,71.81
2023-02-11T15:38:41.789Z,72.79
2023-02-11T15:43:49.008Z,73.52
2023-02-11T15:48:53.926Z,75.31
2023-02-11T15:54:09.900Z,79.11
2023-02-11T15:59:30.753Z,81.42
2023-02-11T16:04:34.285Z,82.76
2023-02-11T16:09:37.849Z,84.03
2023-02-11T16:14:41.136Z,85.37
2023-02-11T16:19:48.243Z,86.06
2023-02-11T16:24:53.667Z,85.76
2023-02-11T16:29:57.982Z,86.26
2023-02-11T16:35:02.024Z,86.83
2023-02-11T16:40:06.098Z,86.73
2023-02-11T16:45:10.143Z,86.54
2023-02-11T16:50:22.252Z,86.51
2023-02-11T16:55:25.792Z,86.62
2023-02-11T17:00:29.449Z,86.85
2023-02-11T17:05:42.770Z,87.25
2023-02-11T17:10:53.233Z,87.26
2023-02-11T17:16:09.400Z,87.65
2023-02-11T17:21:13.044Z,87.72
2023-02-11T17:26:16.595Z,88.07
2023-02-11T17:31:20.002Z,88.12
2023-02-11T17:36:24.774Z,87.65
2023-02-11T17:41:36.407Z,87.38
2023-02-11T17:46:39.816Z,87.25
2023-02-11T17:51:46.528Z,86.77
2023-02-11T17:56:50.967Z,86.49
2023-02-11T18:01:56.702Z,86.58
2023-02-11T18:07:00.160Z,87.42
2023-02-11T18:12:04.273Z,87.61
2023-02-11T18:17:07.972Z,87.34
2023-02-11T18:22:14.601Z,87.03
2023-02-11T18:27:18.162Z,87.00
2023-02-11T18:32:21.522Z,87.14
2023-02-11T18:37:38.837Z,86.64
2023-02-11T18:42:51.913Z,86.69
2023-02-11T18:47:55.915Z,86.77
2023-02-11T18:52:59.489Z,87.22
2023-02-11T18:58:03.161Z,87.20
2023-02-11T19:03:09.570Z,87.59
2023-02-11T19:08:15.567Z,87.38
2023-02-11T19:13:19.121Z,87.76
2023-02-11T19:18:22.928Z,88.25
2023-02-11T19:23:26.530Z,88.31
2023-02-11T19:28:30.959Z,88.13
2023-02-11T19:33:42.273Z,88.21
2023-02-11T19:38:45.809Z,88.24
2023-02-11T19:43:56.845Z,88.07
2023-02-11T19:49:03.417Z,87.66
2023-02-11T19:54:07.604Z,88.00
2023-02-11T19:59:11.181Z,88.15
2023-02-11T20:04:15.553Z,88.22
2023-02-11T20:09:22.883Z,88.82
2023-02-11T20:14:28.026Z,88.60
2023-02-11T20:19:31.956Z,88.85
2023-02-11T20:24:35.700Z,88.71
2023-02-11T20:29:42.096Z,88.42
2023-02-11T20:34:45.592Z,88.66
2023-02-11T20:39:52.081Z,88.48
2023-02-11T20:44:55.520Z,88.63
2023-02-11T20:49:59.205Z,88.75
2023-02-11T20:55:09.061Z,88.93
2023-02-11T21:00:13.554Z,88.24
2023-02-11T21:05:17.217Z,88.15
2023-02-11T21:10:20.692Z,88.32
2023-02-11T21:15:24.453Z,88.50
2023-02-11T21:20:28.856Z,88.25
2023-02-11T21:25:35.611Z,88.27
2023-02-11T21:30:42.065Z,88.48
2023-02-11T21:35:45.747Z,88.71
2023-02-11T21:40:59.110Z,88.57
2023-02-11T21:46:09.828Z,88.49
2023-02-11T21:51:15.905Z,88.47
2023-02-11T21:56:19.626Z,88.38
2023-02-11T22:01:58.913Z,88.33
2023-02-11T22:07:03.508Z,88.61
2023-02-11T22:12:09.006Z,88.79
2023-02-11T22:17:15.479Z,89.30
2023-02-11T22:22:19.867Z,89.29
2023-02-11T22:27:23.525Z,89.24
2023-02-11T22:32:27.213Z,88.97
2023-02-11T22:37:31.158Z,89.04
2023-02-11T22:42:45.459Z,89.26
2023-02-11T22:47:55.314Z,89.22
2023-02-11T22:53:01.877Z,89.31
2023-02-11T22:58:11.010Z,88.69
2023-02-11T23:03:22.053Z,88.54
2023-02-11T23:08:26.189Z,88.52
2023-02-11T23:13:51.912Z,88.88
2023-02-11T23:18:59.163Z,88.57
2023-02-11T23:24:09.518Z,88.29
2023-02-11T23:29:41.842Z,88.79
2023-02-11T23:34:45.350Z,88.66
2023-02-11T23:39:48.983Z,88.99
2023-02-11T23:44:53.821Z,89.25
2023-02-11T23:50:04.815Z,89.56
2023-02-11T23:55:09.254Z,89.61
